Clayton, Delaware
Current Conditions -  °F | °C
As of 10:58 PM on Sunday 21 Dec 2014 (Local Time) from KDOV Reporting Station
Clear Clear  
Wind Chill: 22°   Ceiling: Unl
Heat Index: 27°   Visibility: 10mi
Dew Point: 24°   Wind: 5mph
Humidity: 88%   Direction: 350°N
Pressure: 30.31"   Gusts: NA
Location:  39.29°N, 75.63°W
Report Text: KDOV 220358Z AUTO 35004KT 10SM CLR M03/M04 A3031 RMK AO2 SLP268 T10271045
Loading
Personal Weather Stations






























Interactive Weather Map New forecast layout! Learn more

10-Day Weather Forecast

Advertisements
Track Severe Weather on mobile